sensor_id;sensor_type;location;lat;lon;timestamp;P1;durP1;ratioP1;P2;durP2;ratioP2
34739;SDS011;20967;48.442;9.994;2023-05-10T00:01:45;3.37;;;2.75;;
34739;SDS011;20967;48.442;9.994;2023-05-10T00:04:13;3.40;;;2.60;;
34739;SDS011;20967;48.442;9.994;2023-05-10T00:06:46;3.95;;;2.67;;
34739;SDS011;20967;48.442;9.994;2023-05-10T00:09:13;4.00;;;2.80;;
34739;SDS011;20967;48.442;9.994;2023-05-10T00:11:41;4.00;;;2.45;;
34739;SDS011;20967;48.442;9.994;2023-05-10T00:14:09;3.90;;;2.75;;
34739;SDS011;20967;48.442;9.994;2023-05-10T00:16:38;5.80;;;3.22;;
34739;SDS011;20967;48.442;9.994;2023-05-10T00:19:05;4.55;;;2.70;;
34739;SDS011;20967;48.442;9.994;2023-05-10T00:21:33;4.05;;;3.22;;
34739;SDS011;20967;48.442;9.994;2023-05-10T00:24:01;4.70;;;3.22;;
34739;SDS011;20967;48.442;9.994;2023-05-10T00:26:29;5.22;;;3.52;;
34739;SDS011;20967;48.442;9.994;2023-05-10T00:28:57;6.58;;;3.37;;
34739;SDS011;20967;48.442;9.994;2023-05-10T00:31:25;3.92;;;3.00;;
34739;SDS011;20967;48.442;9.994;2023-05-10T00:33:54;3.60;;;3.05;;
34739;SDS011;20967;48.442;9.994;2023-05-10T00:36:21;3.72;;;3.30;;
34739;SDS011;20967;48.442;9.994;2023-05-10T00:38:49;4.17;;;2.98;;
34739;SDS011;20967;48.442;9.994;2023-05-10T00:41:17;4.45;;;3.60;;
34739;SDS011;20967;48.442;9.994;2023-05-10T00:43:45;3.72;;;2.80;;
34739;SDS011;20967;48.442;9.994;2023-05-10T00:46:13;7.70;;;3.60;;
34739;SDS011;20967;48.442;9.994;2023-05-10T00:48:42;3.92;;;3.17;;
34739;SDS011;20967;48.442;9.994;2023-05-10T00:51:11;4.33;;;3.65;;
34739;SDS011;20967;48.442;9.994;2023-05-10T00:53:40;8.08;;;3.72;;
34739;SDS011;20967;48.442;9.994;2023-05-10T00:58:43;5.33;;;3.77;;
34739;SDS011;20967;48.442;9.994;2023-05-10T01:01:10;4.62;;;3.60;;
34739;SDS011;20967;48.442;9.994;2023-05-10T01:03:39;7.72;;;3.83;;
34739;SDS011;20967;48.442;9.994;2023-05-10T01:06:07;7.03;;;4.25;;
34739;SDS011;20967;48.442;9.994;2023-05-10T01:08:36;6.30;;;4.40;;
34739;SDS011;20967;48.442;9.994;2023-05-10T01:11:04;5.70;;;4.40;;
34739;SDS011;20967;48.442;9.994;2023-05-10T01:13:35;5.67;;;4.37;;
34739;SDS011;20967;48.442;9.994;2023-05-10T01:18:36;6.17;;;4.00;;
34739;SDS011;20967;48.442;9.994;2023-05-10T01:21:14;6.28;;;4.08;;
34739;SDS011;20967;48.442;9.994;2023-05-10T01:32:24;5.37;;;3.95;;
34739;SDS011;20967;48.442;9.994;2023-05-10T01:37:39;3.00;;;2.25;;
34739;SDS011;20967;48.442;9.994;2023-05-10T01:42:43;2.55;;;1.70;;
34739;SDS011;20967;48.442;9.994;2023-05-10T01:45:17;1.35;;;0.93;;
34739;SDS011;20967;48.442;9.994;2023-05-10T01:50:18;5.00;;;1.10;;
34739;SDS011;20967;48.442;9.994;2023-05-10T01:52:50;4.72;;;1.22;;
34739;SDS011;20967;48.442;9.994;2023-05-10T01:55:20;3.15;;;1.50;;
34739;SDS011;20967;48.442;9.994;2023-05-10T01:57:51;1.98;;;1.62;;
34739;SDS011;20967;48.442;9.994;2023-05-10T02:00:20;4.10;;;1.75;;
34739;SDS011;20967;48.442;9.994;2023-05-10T02:02:50;2.12;;;1.25;;
34739;SDS011;20967;48.442;9.994;2023-05-10T02:05:19;4.05;;;0.72;;
34739;SDS011;20967;48.442;9.994;2023-05-10T02:07:48;2.55;;;0.80;;
34739;SDS011;20967;48.442;9.994;2023-05-10T02:10:17;0.30;;;0.30;;
34739;SDS011;20967;48.442;9.994;2023-05-10T02:12:47;2.92;;;0.30;;
34739;SDS011;20967;48.442;9.994;2023-05-10T02:15:18;0.75;;;0.45;;
34739;SDS011;20967;48.442;9.994;2023-05-10T02:17:47;1.05;;;0.28;;
34739;SDS011;20967;48.442;9.994;2023-05-10T02:20:16;0.00;;;0.00;;
34739;SDS011;20967;48.442;9.994;2023-05-10T02:22:45;0.00;;;0.00;;
34739;SDS011;20967;48.442;9.994;2023-05-10T02:25:15;0.08;;;0.03;;
34739;SDS011;20967;48.442;9.994;2023-05-10T02:27:46;0.20;;;0.08;;
34739;SDS011;20967;48.442;9.994;2023-05-10T02:30:15;0.05;;;0.00;;
34739;SDS011;20967;48.442;9.994;2023-05-10T02:32:45;0.25;;;0.10;;
34739;SDS011;20967;48.442;9.994;2023-05-10T02:35:15;0.10;;;0.10;;
34739;SDS011;20967;48.442;9.994;2023-05-10T02:37:44;0.00;;;0.00;;
34739;SDS011;20967;48.442;9.994;2023-05-10T02:40:14;0.53;;;0.10;;
34739;SDS011;20967;48.442;9.994;2023-05-10T02:42:44;0.62;;;0.20;;
34739;SDS011;20967;48.442;9.994;2023-05-10T02:45:17;0.23;;;0.20;;
34739;SDS011;20967;48.442;9.994;2023-05-10T02:47:45;0.20;;;0.10;;
34739;SDS011;20967;48.442;9.994;2023-05-10T02:50:14;0.33;;;0.15;;
34739;SDS011;20967;48.442;9.994;2023-05-10T02:52:50;0.30;;;0.10;;
34739;SDS011;20967;48.442;9.994;2023-05-10T02:55:16;0.10;;;0.10;;
34739;SDS011;20967;48.442;9.994;2023-05-10T02:57:47;1.15;;;0.17;;
34739;SDS011;20967;48.442;9.994;2023-05-10T03:02:48;0.10;;;0.10;;
34739;SDS011;20967;48.442;9.994;2023-05-10T03:05:16;0.33;;;0.00;;
34739;SDS011;20967;48.442;9.994;2023-05-10T03:07:44;5.75;;;0.10;;
34739;SDS011;20967;48.442;9.994;2023-05-10T03:10:13;0.20;;;0.20;;
34739;SDS011;20967;48.442;9.994;2023-05-10T03:12:57;0.10;;;0.10;;
34739;SDS011;20967;48.442;9.994;2023-05-10T03:17:57;0.10;;;0.10;;
34739;SDS011;20967;48.442;9.994;2023-05-10T03:20:42;0.40;;;0.40;;
34739;SDS011;20967;48.442;9.994;2023-05-10T03:23:11;0.33;;;0.20;;
34739;SDS011;20967;48.442;9.994;2023-05-10T03:25:53;0.20;;;0.13;;
34739;SDS011;20967;48.442;9.994;2023-05-10T03:28:21;0.10;;;0.10;;
34739;SDS011;20967;48.442;9.994;2023-05-10T03:30:52;0.17;;;0.17;;
34739;SDS011;20967;48.442;9.994;2023-05-10T03:33:20;6.33;;;1.25;;
34739;SDS011;20967;48.442;9.994;2023-05-10T03:35:48;0.30;;;0.30;;
34739;SDS011;20967;48.442;9.994;2023-05-10T03:38:16;0.30;;;0.20;;
34739;SDS011;20967;48.442;9.994;2023-05-10T03:40:44;0.10;;;0.10;;
34739;SDS011;20967;48.442;9.994;2023-05-10T03:43:11;0.15;;;0.15;;
34739;SDS011;20967;48.442;9.994;2023-05-10T03:45:39;0.50;;;0.30;;
34739;SDS011;20967;48.442;9.994;2023-05-10T03:48:07;3.95;;;0.50;;
34739;SDS011;20967;48.442;9.994;2023-05-10T03:50:35;1.42;;;0.30;;
34739;SDS011;20967;48.442;9.994;2023-05-10T03:53:02;0.50;;;0.50;;
34739;SDS011;20967;48.442;9.994;2023-05-10T03:55:30;2.77;;;0.60;;
34739;SDS011;20967;48.442;9.994;2023-05-10T03:58:00;0.40;;;0.40;;
34739;SDS011;20967;48.442;9.994;2023-05-10T04:00:27;1.50;;;0.57;;
34739;SDS011;20967;48.442;9.994;2023-05-10T04:02:56;1.55;;;0.70;;
34739;SDS011;20967;48.442;9.994;2023-05-10T04:05:23;1.90;;;0.53;;
34739;SDS011;20967;48.442;9.994;2023-05-10T04:07:51;1.67;;;0.40;;
34739;SDS011;20967;48.442;9.994;2023-05-10T04:10:19;2.80;;;0.40;;
34739;SDS011;20967;48.442;9.994;2023-05-10T04:12:47;0.82;;;0.50;;
34739;SDS011;20967;48.442;9.994;2023-05-10T04:15:15;2.42;;;0.40;;
34739;SDS011;20967;48.442;9.994;2023-05-10T04:17:43;1.98;;;0.55;;
34739;SDS011;20967;48.442;9.994;2023-05-10T04:20:10;2.35;;;0.70;;
34739;SDS011;20967;48.442;9.994;2023-05-10T04:22:39;1.62;;;0.55;;
34739;SDS011;20967;48.442;9.994;2023-05-10T04:25:07;0.53;;;0.47;;
34739;SDS011;20967;48.442;9.994;2023-05-10T04:27:35;0.72;;;0.68;;
34739;SDS011;20967;48.442;9.994;2023-05-10T04:30:03;1.15;;;0.60;;
34739;SDS011;20967;48.442;9.994;2023-05-10T04:32:31;3.40;;;0.68;;
34739;SDS011;20967;48.442;9.994;2023-05-10T04:34:59;3.42;;;0.90;;
34739;SDS011;20967;48.442;9.994;2023-05-10T04:37:28;2.17;;;1.20;;
34739;SDS011;20967;48.442;9.994;2023-05-10T04:39:56;1.32;;;0.70;;
34739;SDS011;20967;48.442;9.994;2023-05-10T04:42:25;0.70;;;0.70;;
34739;SDS011;20967;48.442;9.994;2023-05-10T04:44:53;1.90;;;0.90;;
34739;SDS011;20967;48.442;9.994;2023-05-10T04:47:21;1.40;;;0.93;;
34739;SDS011;20967;48.442;9.994;2023-05-10T04:49:49;3.85;;;0.80;;
34739;SDS011;20967;48.442;9.994;2023-05-10T04:52:16;1.02;;;0.75;;
34739;SDS011;20967;48.442;9.994;2023-05-10T04:54:44;7.42;;;0.95;;
34739;SDS011;20967;48.442;9.994;2023-05-10T04:57:12;1.30;;;0.95;;
34739;SDS011;20967;48.442;9.994;2023-05-10T04:59:40;2.50;;;0.95;;
34739;SDS011;20967;48.442;9.994;2023-05-10T05:02:08;1.42;;;0.80;;
34739;SDS011;20967;48.442;9.994;2023-05-10T05:04:36;3.85;;;1.10;;
34739;SDS011;20967;48.442;9.994;2023-05-10T05:07:04;1.60;;;0.80;;
34739;SDS011;20967;48.442;9.994;2023-05-10T05:09:31;4.03;;;0.98;;
34739;SDS011;20967;48.442;9.994;2023-05-10T05:11:59;2.00;;;0.80;;
34739;SDS011;20967;48.442;9.994;2023-05-10T05:14:27;1.77;;;1.10;;
34739;SDS011;20967;48.442;9.994;2023-05-10T05:16:55;2.75;;;0.68;;
34739;SDS011;20967;48.442;9.994;2023-05-10T05:19:23;0.93;;;0.70;;
34739;SDS011;20967;48.442;9.994;2023-05-10T05:21:50;3.95;;;0.80;;
34739;SDS011;20967;48.442;9.994;2023-05-10T05:24:18;2.92;;;0.50;;
34739;SDS011;20967;48.442;9.994;2023-05-10T05:26:46;1.60;;;0.70;;
34739;SDS011;20967;48.442;9.994;2023-05-10T05:29:14;0.62;;;0.62;;
34739;SDS011;20967;48.442;9.994;2023-05-10T05:31:42;1.27;;;0.62;;
34739;SDS011;20967;48.442;9.994;2023-05-10T05:34:10;2.37;;;0.90;;
34739;SDS011;20967;48.442;9.994;2023-05-10T05:36:37;2.65;;;0.55;;
34739;SDS011;20967;48.442;9.994;2023-05-10T05:39:05;1.15;;;0.90;;
34739;SDS011;20967;48.442;9.994;2023-05-10T05:41:33;1.15;;;0.60;;
34739;SDS011;20967;48.442;9.994;2023-05-10T05:44:01;2.15;;;0.85;;
34739;SDS011;20967;48.442;9.994;2023-05-10T05:46:28;1.77;;;0.75;;
34739;SDS011;20967;48.442;9.994;2023-05-10T05:48:56;1.40;;;0.60;;
34739;SDS011;20967;48.442;9.994;2023-05-10T05:51:24;4.65;;;0.78;;
34739;SDS011;20967;48.442;9.994;2023-05-10T05:53:52;1.27;;;0.70;;
34739;SDS011;20967;48.442;9.994;2023-05-10T05:56:19;1.98;;;0.93;;
34739;SDS011;20967;48.442;9.994;2023-05-10T05:58:49;2.72;;;0.72;;
34739;SDS011;20967;48.442;9.994;2023-05-10T06:01:17;3.72;;;0.80;;
34739;SDS011;20967;48.442;9.994;2023-05-10T06:03:45;0.68;;;0.42;;
34739;SDS011;20967;48.442;9.994;2023-05-10T06:06:13;1.47;;;0.70;;
34739;SDS011;20967;48.442;9.994;2023-05-10T06:08:41;3.75;;;0.62;;
34739;SDS011;20967;48.442;9.994;2023-05-10T06:11:08;1.07;;;0.72;;
34739;SDS011;20967;48.442;9.994;2023-05-10T06:13:36;3.08;;;0.60;;
34739;SDS011;20967;48.442;9.994;2023-05-10T06:16:04;1.42;;;0.50;;
34739;SDS011;20967;48.442;9.994;2023-05-10T06:18:32;3.40;;;0.88;;
34739;SDS011;20967;48.442;9.994;2023-05-10T06:21:00;1.50;;;0.70;;
34739;SDS011;20967;48.442;9.994;2023-05-10T06:23:28;1.90;;;0.55;;
34739;SDS011;20967;48.442;9.994;2023-05-10T06:25:56;4.08;;;0.80;;
34739;SDS011;20967;48.442;9.994;2023-05-10T06:28:23;5.35;;;0.53;;
34739;SDS011;20967;48.442;9.994;2023-05-10T06:30:51;1.90;;;0.70;;
34739;SDS011;20967;48.442;9.994;2023-05-10T06:33:19;1.72;;;0.45;;
34739;SDS011;20967;48.442;9.994;2023-05-10T06:35:47;3.20;;;0.60;;
34739;SDS011;20967;48.442;9.994;2023-05-10T06:38:14;2.92;;;0.50;;
34739;SDS011;20967;48.442;9.994;2023-05-10T06:40:42;3.22;;;0.47;;
34739;SDS011;20967;48.442;9.994;2023-05-10T06:43:10;0.45;;;0.30;;
34739;SDS011;20967;48.442;9.994;2023-05-10T06:45:38;6.15;;;0.93;;
34739;SDS011;20967;48.442;9.994;2023-05-10T06:48:06;3.92;;;1.10;;
34739;SDS011;20967;48.442;9.994;2023-05-10T06:50:35;2.00;;;0.50;;
34739;SDS011;20967;48.442;9.994;2023-05-10T06:53:02;0.85;;;0.57;;
34739;SDS011;20967;48.442;9.994;2023-05-10T06:55:32;1.57;;;0.57;;
34739;SDS011;20967;48.442;9.994;2023-05-10T06:58:00;1.60;;;0.72;;
34739;SDS011;20967;48.442;9.994;2023-05-10T07:00:28;0.65;;;0.30;;
34739;SDS011;20967;48.442;9.994;2023-05-10T07:02:55;4.33;;;0.30;;
34739;SDS011;20967;48.442;9.994;2023-05-10T07:05:24;3.83;;;0.60;;
34739;SDS011;20967;48.442;9.994;2023-05-10T07:07:53;1.15;;;0.40;;
34739;SDS011;20967;48.442;9.994;2023-05-10T07:10:21;2.72;;;0.45;;
34739;SDS011;20967;48.442;9.994;2023-05-10T07:12:49;0.60;;;0.30;;
34739;SDS011;20967;48.442;9.994;2023-05-10T07:15:17;0.62;;;0.62;;
34739;SDS011;20967;48.442;9.994;2023-05-10T07:17:44;1.35;;;0.40;;
34739;SDS011;20967;48.442;9.994;2023-05-10T07:20:12;0.50;;;0.40;;
34739;SDS011;20967;48.442;9.994;2023-05-10T07:22:40;5.67;;;0.55;;
34739;SDS011;20967;48.442;9.994;2023-05-10T07:25:08;0.68;;;0.50;;
34739;SDS011;20967;48.442;9.994;2023-05-10T07:27:36;1.95;;;0.60;;
34739;SDS011;20967;48.442;9.994;2023-05-10T07:30:04;0.93;;;0.60;;
34739;SDS011;20967;48.442;9.994;2023-05-10T07:32:33;3.15;;;0.60;;
34739;SDS011;20967;48.442;9.994;2023-05-10T07:35:00;4.15;;;1.25;;
34739;SDS011;20967;48.442;9.994;2023-05-10T07:37:29;0.50;;;0.40;;
34739;SDS011;20967;48.442;9.994;2023-05-10T07:39:57;1.95;;;0.45;;
34739;SDS011;20967;48.442;9.994;2023-05-10T07:42:24;2.05;;;0.50;;
34739;SDS011;20967;48.442;9.994;2023-05-10T07:44:52;7.28;;;0.65;;
34739;SDS011;20967;48.442;9.994;2023-05-10T07:47:20;4.15;;;0.45;;
34739;SDS011;20967;48.442;9.994;2023-05-10T07:49:49;3.33;;;0.78;;
34739;SDS011;20967;48.442;9.994;2023-05-10T07:52:17;1.85;;;0.95;;
34739;SDS011;20967;48.442;9.994;2023-05-10T07:54:45;2.87;;;0.62;;
34739;SDS011;20967;48.442;9.994;2023-05-10T07:57:12;1.50;;;0.60;;
34739;SDS011;20967;48.442;9.994;2023-05-10T07:59:42;0.53;;;0.40;;
34739;SDS011;20967;48.442;9.994;2023-05-10T08:02:10;5.85;;;0.60;;
34739;SDS011;20967;48.442;9.994;2023-05-10T08:04:38;1.67;;;0.55;;
34739;SDS011;20967;48.442;9.994;2023-05-10T08:07:06;0.85;;;0.42;;
34739;SDS011;20967;48.442;9.994;2023-05-10T08:09:34;3.75;;;1.62;;
34739;SDS011;20967;48.442;9.994;2023-05-10T08:12:02;4.67;;;0.65;;
34739;SDS011;20967;48.442;9.994;2023-05-10T08:14:30;2.17;;;0.45;;
34739;SDS011;20967;48.442;9.994;2023-05-10T08:16:58;1.47;;;0.75;;
34739;SDS011;20967;48.442;9.994;2023-05-10T08:19:26;7.50;;;0.50;;
34739;SDS011;20967;48.442;9.994;2023-05-10T08:21:54;2.12;;;0.55;;
34739;SDS011;20967;48.442;9.994;2023-05-10T08:24:24;0.20;;;0.20;;
34739;SDS011;20967;48.442;9.994;2023-05-10T08:26:52;0.70;;;0.40;;
34739;SDS011;20967;48.442;9.994;2023-05-10T08:29:20;1.95;;;0.60;;
34739;SDS011;20967;48.442;9.994;2023-05-10T08:31:47;1.10;;;0.40;;
34739;SDS011;20967;48.442;9.994;2023-05-10T08:34:15;6.70;;;0.50;;
34739;SDS011;20967;48.442;9.994;2023-05-10T08:36:43;1.20;;;0.40;;
34739;SDS011;20967;48.442;9.994;2023-05-10T08:39:11;0.53;;;0.30;;
34739;SDS011;20967;48.442;9.994;2023-05-10T08:41:39;1.25;;;0.50;;
34739;SDS011;20967;48.442;9.994;2023-05-10T08:44:08;0.98;;;0.40;;
34739;SDS011;20967;48.442;9.994;2023-05-10T08:46:37;0.85;;;0.40;;
34739;SDS011;20967;48.442;9.994;2023-05-10T08:49:09;0.60;;;0.30;;
34739;SDS011;20967;48.442;9.994;2023-05-10T08:51:40;1.35;;;0.42;;
34739;SDS011;20967;48.442;9.994;2023-05-10T08:54:10;2.47;;;0.37;;
34739;SDS011;20967;48.442;9.994;2023-05-10T08:56:38;0.42;;;0.30;;
34739;SDS011;20967;48.442;9.994;2023-05-10T08:59:06;2.70;;;0.40;;
34739;SDS011;20967;48.442;9.994;2023-05-10T09:01:35;1.10;;;0.40;;
34739;SDS011;20967;48.442;9.994;2023-05-10T09:04:03;4.05;;;0.33;;
34739;SDS011;20967;48.442;9.994;2023-05-10T09:06:31;0.40;;;0.23;;
34739;SDS011;20967;48.442;9.994;2023-05-10T09:09:01;1.72;;;0.20;;
34739;SDS011;20967;48.442;9.994;2023-05-10T09:11:29;4.40;;;0.40;;
34739;SDS011;20967;48.442;9.994;2023-05-10T09:13:57;1.45;;;0.20;;
34739;SDS011;20967;48.442;9.994;2023-05-10T09:16:25;0.20;;;0.20;;
34739;SDS011;20967;48.442;9.994;2023-05-10T09:18:53;0.20;;;0.20;;
34739;SDS011;20967;48.442;9.994;2023-05-10T09:21:20;0.37;;;0.30;;
34739;SDS011;20967;48.442;9.994;2023-05-10T09:23:48;0.23;;;0.20;;
34739;SDS011;20967;48.442;9.994;2023-05-10T09:26:16;0.70;;;0.30;;
34739;SDS011;20967;48.442;9.994;2023-05-10T09:28:50;2.92;;;0.33;;
34739;SDS011;20967;48.442;9.994;2023-05-10T09:33:56;1.00;;;0.35;;
34739;SDS011;20967;48.442;9.994;2023-05-10T09:36:21;1.12;;;0.30;;
34739;SDS011;20967;48.442;9.994;2023-05-10T09:38:49;0.33;;;0.20;;
34739;SDS011;20967;48.442;9.994;2023-05-10T09:41:19;0.60;;;0.20;;
34739;SDS011;20967;48.442;9.994;2023-05-10T09:43:48;2.67;;;0.40;;
34739;SDS011;20967;48.442;9.994;2023-05-10T09:46:17;0.60;;;0.40;;
34739;SDS011;20967;48.442;9.994;2023-05-10T09:48:45;0.45;;;0.30;;
34739;SDS011;20967;48.442;9.994;2023-05-10T09:51:20;2.58;;;0.30;;
34739;SDS011;20967;48.442;9.994;2023-05-10T09:59:06;0.30;;;0.13;;
34739;SDS011;20967;48.442;9.994;2023-05-10T10:01:36;4.65;;;0.20;;
34739;SDS011;20967;48.442;9.994;2023-05-10T10:04:05;0.88;;;0.20;;
34739;SDS011;20967;48.442;9.994;2023-05-10T10:06:35;2.92;;;0.23;;
34739;SDS011;20967;48.442;9.994;2023-05-10T10:09:06;3.92;;;0.20;;
34739;SDS011;20967;48.442;9.994;2023-05-10T10:11:36;0.20;;;0.10;;
34739;SDS011;20967;48.442;9.994;2023-05-10T10:14:07;0.82;;;0.28;;
34739;SDS011;20967;48.442;9.994;2023-05-10T10:16:35;0.30;;;0.15;;
34739;SDS011;20967;48.442;9.994;2023-05-10T10:19:02;0.50;;;0.20;;
34739;SDS011;20967;48.442;9.994;2023-05-10T10:21:31;0.40;;;0.30;;
34739;SDS011;20967;48.442;9.994;2023-05-10T10:23:59;0.25;;;0.20;;
34739;SDS011;20967;48.442;9.994;2023-05-10T10:26:29;1.67;;;0.35;;
34739;SDS011;20967;48.442;9.994;2023-05-10T10:29:06;0.20;;;0.20;;
34739;SDS011;20967;48.442;9.994;2023-05-10T10:31:46;3.90;;;0.60;;
34739;SDS011;20967;48.442;9.994;2023-05-10T10:36:46;0.23;;;0.20;;
34739;SDS011;20967;48.442;9.994;2023-05-10T10:39:14;0.30;;;0.30;;
34739;SDS011;20967;48.442;9.994;2023-05-10T10:41:49;0.40;;;0.20;;
34739;SDS011;20967;48.442;9.994;2023-05-10T10:46:58;1.50;;;0.30;;
34739;SDS011;20967;48.442;9.994;2023-05-10T10:54:59;1.05;;;0.60;;
34739;SDS011;20967;48.442;9.994;2023-05-10T11:02:47;0.40;;;0.30;;
34739;SDS011;20967;48.442;9.994;2023-05-10T11:05:38;0.40;;;0.27;;
34739;SDS011;20967;48.442;9.994;2023-05-10T11:08:09;0.35;;;0.20;;
34739;SDS011;20967;48.442;9.994;2023-05-10T11:10:38;1.87;;;0.13;;
34739;SDS011;20967;48.442;9.994;2023-05-10T11:13:12;2.00;;;0.75;;
34739;SDS011;20967;48.442;9.994;2023-05-10T11:15:43;0.62;;;0.30;;
34739;SDS011;20967;48.442;9.994;2023-05-10T11:18:20;0.85;;;0.35;;
34739;SDS011;20967;48.442;9.994;2023-05-10T11:23:21;3.75;;;0.40;;
34739;SDS011;20967;48.442;9.994;2023-05-10T11:25:49;0.80;;;0.28;;
34739;SDS011;20967;48.442;9.994;2023-05-10T11:28:17;0.62;;;0.35;;
34739;SDS011;20967;48.442;9.994;2023-05-10T11:30:45;1.27;;;0.33;;
34739;SDS011;20967;48.442;9.994;2023-05-10T11:33:19;3.65;;;0.45;;
34739;SDS011;20967;48.442;9.994;2023-05-10T11:35:45;0.45;;;0.30;;
34739;SDS011;20967;48.442;9.994;2023-05-10T11:38:13;1.70;;;0.40;;
34739;SDS011;20967;48.442;9.994;2023-05-10T11:40:41;1.10;;;0.45;;
34739;SDS011;20967;48.442;9.994;2023-05-10T11:43:10;2.52;;;0.40;;
34739;SDS011;20967;48.442;9.994;2023-05-10T11:45:37;0.40;;;0.30;;
34739;SDS011;20967;48.442;9.994;2023-05-10T11:48:06;0.95;;;0.33;;
34739;SDS011;20967;48.442;9.994;2023-05-10T11:50:34;0.70;;;0.30;;
34739;SDS011;20967;48.442;9.994;2023-05-10T11:53:02;0.30;;;0.20;;
34739;SDS011;20967;48.442;9.994;2023-05-10T11:55:32;0.70;;;0.20;;
34739;SDS011;20967;48.442;9.994;2023-05-10T11:58:00;0.75;;;0.30;;
34739;SDS011;20967;48.442;9.994;2023-05-10T12:00:28;0.37;;;0.30;;
34739;SDS011;20967;48.442;9.994;2023-05-10T12:02:57;1.72;;;0.30;;
34739;SDS011;20967;48.442;9.994;2023-05-10T12:05:27;0.82;;;0.30;;
34739;SDS011;20967;48.442;9.994;2023-05-10T12:08:10;3.25;;;0.47;;
34739;SDS011;20967;48.442;9.994;2023-05-10T12:10:39;1.15;;;0.25;;
34739;SDS011;20967;48.442;9.994;2023-05-10T12:13:11;5.72;;;0.30;;
34739;SDS011;20967;48.442;9.994;2023-05-10T12:15:40;3.15;;;0.40;;
34739;SDS011;20967;48.442;9.994;2023-05-10T12:18:09;1.77;;;0.10;;
34739;SDS011;20967;48.442;9.994;2023-05-10T12:20:38;2.60;;;0.35;;
34739;SDS011;20967;48.442;9.994;2023-05-10T12:23:08;1.65;;;0.85;;
34739;SDS011;20967;48.442;9.994;2023-05-10T12:28:08;2.15;;;0.30;;
34739;SDS011;20967;48.442;9.994;2023-05-10T12:30:36;0.93;;;0.40;;
34739;SDS011;20967;48.442;9.994;2023-05-10T12:33:13;3.80;;;0.20;;
34739;SDS011;20967;48.442;9.994;2023-05-10T12:35:45;0.75;;;0.68;;
34739;SDS011;20967;48.442;9.994;2023-05-10T12:43:28;6.83;;;0.50;;
34739;SDS011;20967;48.442;9.994;2023-05-10T12:45:56;1.17;;;0.60;;
34739;SDS011;20967;48.442;9.994;2023-05-10T12:48:24;2.98;;;0.50;;
34739;SDS011;20967;48.442;9.994;2023-05-10T12:50:52;0.72;;;0.40;;
34739;SDS011;20967;48.442;9.994;2023-05-10T12:53:19;0.35;;;0.30;;
34739;SDS011;20967;48.442;9.994;2023-05-10T12:55:47;0.93;;;0.40;;
34739;SDS011;20967;48.442;9.994;2023-05-10T12:58:15;0.53;;;0.20;;
34739;SDS011;20967;48.442;9.994;2023-05-10T13:00:43;0.33;;;0.28;;
34739;SDS011;20967;48.442;9.994;2023-05-10T13:03:10;1.27;;;0.30;;
34739;SDS011;20967;48.442;9.994;2023-05-10T13:05:38;1.15;;;0.28;;
34739;SDS011;20967;48.442;9.994;2023-05-10T13:08:06;6.30;;;0.45;;
34739;SDS011;20967;48.442;9.994;2023-05-10T13:10:34;5.37;;;1.17;;
34739;SDS011;20967;48.442;9.994;2023-05-10T13:13:01;2.08;;;0.37;;
34739;SDS011;20967;48.442;9.994;2023-05-10T13:15:29;1.10;;;0.40;;
34739;SDS011;20967;48.442;9.994;2023-05-10T13:17:57;2.15;;;0.42;;
34739;SDS011;20967;48.442;9.994;2023-05-10T13:20:26;6.65;;;0.53;;
34739;SDS011;20967;48.442;9.994;2023-05-10T13:22:54;1.77;;;0.57;;
34739;SDS011;20967;48.442;9.994;2023-05-10T13:25:21;3.33;;;0.62;;
34739;SDS011;20967;48.442;9.994;2023-05-10T13:27:49;1.87;;;0.60;;
34739;SDS011;20967;48.442;9.994;2023-05-10T13:30:17;2.98;;;0.80;;
34739;SDS011;20967;48.442;9.994;2023-05-10T13:32:45;1.00;;;0.62;;
34739;SDS011;20967;48.442;9.994;2023-05-10T13:35:13;10.72;;;2.60;;
34739;SDS011;20967;48.442;9.994;2023-05-10T13:37:41;2.70;;;0.80;;
34739;SDS011;20967;48.442;9.994;2023-05-10T13:40:09;1.62;;;0.57;;
34739;SDS011;20967;48.442;9.994;2023-05-10T13:42:37;2.50;;;0.40;;
34739;SDS011;20967;48.442;9.994;2023-05-10T13:45:05;4.12;;;0.70;;
34739;SDS011;20967;48.442;9.994;2023-05-10T13:47:33;3.60;;;0.70;;
34739;SDS011;20967;48.442;9.994;2023-05-10T13:50:01;1.25;;;0.53;;
34739;SDS011;20967;48.442;9.994;2023-05-10T13:52:29;3.75;;;0.80;;
34739;SDS011;20967;48.442;9.994;2023-05-10T13:54:57;3.95;;;0.72;;
34739;SDS011;20967;48.442;9.994;2023-05-10T13:57:24;2.05;;;1.30;;
34739;SDS011;20967;48.442;9.994;2023-05-10T13:59:52;1.40;;;0.65;;
34739;SDS011;20967;48.442;9.994;2023-05-10T14:02:20;4.65;;;1.07;;
34739;SDS011;20967;48.442;9.994;2023-05-10T14:04:48;3.77;;;0.80;;
34739;SDS011;20967;48.442;9.994;2023-05-10T14:07:15;2.87;;;0.90;;
34739;SDS011;20967;48.442;9.994;2023-05-10T14:09:43;5.62;;;1.05;;
34739;SDS011;20967;48.442;9.994;2023-05-10T14:12:11;1.15;;;0.70;;
34739;SDS011;20967;48.442;9.994;2023-05-10T14:14:40;3.50;;;0.57;;
34739;SDS011;20967;48.442;9.994;2023-05-10T14:17:08;2.20;;;0.90;;
34739;SDS011;20967;48.442;9.994;2023-05-10T14:19:36;4.40;;;1.00;;
34739;SDS011;20967;48.442;9.994;2023-05-10T14:22:05;5.22;;;0.93;;
34739;SDS011;20967;48.442;9.994;2023-05-10T14:24:33;2.35;;;0.70;;
34739;SDS011;20967;48.442;9.994;2023-05-10T14:27:00;2.95;;;0.75;;
34739;SDS011;20967;48.442;9.994;2023-05-10T14:29:28;2.83;;;0.60;;
34739;SDS011;20967;48.442;9.994;2023-05-10T14:31:56;4.05;;;0.80;;
34739;SDS011;20967;48.442;9.994;2023-05-10T14:34:24;4.30;;;1.30;;
34739;SDS011;20967;48.442;9.994;2023-05-10T14:36:51;1.92;;;0.53;;
34739;SDS011;20967;48.442;9.994;2023-05-10T14:39:19;2.50;;;0.50;;
34739;SDS011;20967;48.442;9.994;2023-05-10T14:41:47;1.70;;;0.70;;
34739;SDS011;20967;48.442;9.994;2023-05-10T14:44:15;3.70;;;0.60;;
34739;SDS011;20967;48.442;9.994;2023-05-10T14:46:42;3.75;;;0.57;;
34739;SDS011;20967;48.442;9.994;2023-05-10T14:49:10;4.17;;;1.10;;
34739;SDS011;20967;48.442;9.994;2023-05-10T14:51:38;1.70;;;0.50;;
34739;SDS011;20967;48.442;9.994;2023-05-10T14:54:06;3.27;;;0.50;;
34739;SDS011;20967;48.442;9.994;2023-05-10T14:56:34;1.40;;;0.70;;
34739;SDS011;20967;48.442;9.994;2023-05-10T14:59:03;2.77;;;0.88;;
34739;SDS011;20967;48.442;9.994;2023-05-10T15:01:31;7.00;;;0.98;;
34739;SDS011;20967;48.442;9.994;2023-05-10T15:03:58;4.50;;;0.98;;
34739;SDS011;20967;48.442;9.994;2023-05-10T15:06:35;2.42;;;0.90;;
34739;SDS011;20967;48.442;9.994;2023-05-10T15:11:30;3.27;;;0.72;;
34739;SDS011;20967;48.442;9.994;2023-05-10T15:13:58;2.85;;;0.75;;
34739;SDS011;20967;48.442;9.994;2023-05-10T15:16:25;2.75;;;1.10;;
34739;SDS011;20967;48.442;9.994;2023-05-10T15:18:53;1.65;;;0.90;;
34739;SDS011;20967;48.442;9.994;2023-05-10T15:21:21;2.37;;;0.80;;
34739;SDS011;20967;48.442;9.994;2023-05-10T15:23:49;6.08;;;1.20;;
34739;SDS011;20967;48.442;9.994;2023-05-10T15:26:16;3.60;;;1.35;;
34739;SDS011;20967;48.442;9.994;2023-05-10T15:28:44;3.12;;;1.40;;
34739;SDS011;20967;48.442;9.994;2023-05-10T15:31:12;8.30;;;2.15;;
34739;SDS011;20967;48.442;9.994;2023-05-10T15:33:42;9.48;;;2.17;;
34739;SDS011;20967;48.442;9.994;2023-05-10T15:36:11;4.28;;;1.77;;
34739;SDS011;20967;48.442;9.994;2023-05-10T15:38:39;4.72;;;1.65;;
34739;SDS011;20967;48.442;9.994;2023-05-10T15:41:07;3.55;;;1.55;;
34739;SDS011;20967;48.442;9.994;2023-05-10T15:43:34;4.22;;;2.02;;
34739;SDS011;20967;48.442;9.994;2023-05-10T15:46:02;9.88;;;2.98;;
34739;SDS011;20967;48.442;9.994;2023-05-10T15:48:31;10.05;;;2.67;;
34739;SDS011;20967;48.442;9.994;2023-05-10T15:50:59;7.15;;;2.47;;
34739;SDS011;20967;48.442;9.994;2023-05-10T15:53:27;5.80;;;1.90;;
34739;SDS011;20967;48.442;9.994;2023-05-10T15:55:55;7.92;;;1.80;;
34739;SDS011;20967;48.442;9.994;2023-05-10T15:58:22;3.12;;;1.62;;
34739;SDS011;20967;48.442;9.994;2023-05-10T16:00:50;7.62;;;1.50;;